Time;durP1;ratioP1;P1;durP2;ratioP2;P2;SDS_P1;SDS_P2;PMS_P1;PMS_P2;Temp;Humidity;BMP_temperature;BMP_pressure;BME280_temperature;BME280_humidity;BME280_pressure;Samples;Min_cycle;Max_cycle;Signal;HPM_P1;HPM_P2
2023/12/23 00:00:31;;;;;;;1.25;0.80;;;3.00;99.90;;;;;;2083792;28;20031;-75
2023/12/23 00:01:34;;;;;;;2.42;0.90;;;3.00;99.90;;;;;;2078175;28;20056;-74
2023/12/23 00:02:35;;;;;;;1.98;1.00;;;3.00;99.90;;;;;;2078951;28;20078;-74
2023/12/23 00:03:35;;;;;;;1.33;0.80;;;3.00;99.90;;;;;;2076150;28;20574;-74
2023/12/23 00:04:36;;;;;;;1.83;1.00;;;2.90;99.90;;;;;;2078662;28;20029;-75
2023/12/23 00:05:37;;;;;;;3.40;1.08;;;2.90;99.90;;;;;;2083126;28;20108;-74
2023/12/23 00:06:39;;;;;;;1.30;0.80;;;2.90;99.90;;;;;;2076356;28;20117;-75
2023/12/23 00:07:39;;;;;;;1.48;0.80;;;2.90;99.90;;;;;;2075549;28;20026;-75
2023/12/23 00:08:40;;;;;;;4.35;0.93;;;2.90;99.90;;;;;;2074999;28;20559;-74
2023/12/23 00:09:41;;;;;;;3.13;1.10;;;2.90;99.90;;;;;;2067764;28;20042;-75
2023/12/23 00:10:41;;;;;;;2.67;1.10;;;2.90;99.90;;;;;;2070298;28;20025;-74
2023/12/23 00:11:42;;;;;;;3.85;1.17;;;2.90;99.90;;;;;;2068573;28;20029;-75
2023/12/23 00:12:43;;;;;;;2.65;1.05;;;2.90;99.90;;;;;;2070494;28;20471;-74
2023/12/23 00:13:44;;;;;;;2.30;0.90;;;2.90;99.90;;;;;;2069015;28;20056;-75
2023/12/23 00:14:44;;;;;;;2.20;1.05;;;2.90;99.90;;;;;;2084648;28;20161;-76
2023/12/23 00:15:45;;;;;;;2.13;1.05;;;2.90;99.90;;;;;;2067291;28;20065;-74
2023/12/23 00:16:45;;;;;;;1.92;1.17;;;3.00;99.90;;;;;;2067125;28;21137;-75
2023/12/23 00:17:46;;;;;;;4.10;1.10;;;3.00;99.90;;;;;;2083243;28;20084;-74
2023/12/23 00:18:46;;;;;;;3.67;1.20;;;3.00;99.90;;;;;;2083325;28;20475;-74
2023/12/23 00:19:47;;;;;;;2.08;1.10;;;3.00;99.90;;;;;;2074680;28;20672;-74
2023/12/23 00:20:48;;;;;;;2.03;1.02;;;3.00;99.90;;;;;;2077931;28;20511;-73
2023/12/23 00:21:48;;;;;;;6.68;1.50;;;3.00;99.90;;;;;;2084274;28;20537;-73
2023/12/23 00:22:49;;;;;;;2.30;1.17;;;3.00;99.90;;;;;;2083314;28;20032;-74
2023/12/23 00:23:49;;;;;;;4.05;1.20;;;3.00;99.90;;;;;;2075497;28;20168;-73
2023/12/23 00:24:50;;;;;;;3.38;1.30;;;3.00;99.90;;;;;;2074968;28;20450;-75
2023/12/23 00:25:50;;;;;;;8.65;1.48;;;3.00;99.90;;;;;;2077346;28;20415;-75
2023/12/23 00:26:51;;;;;;;3.88;1.30;;;3.00;99.90;;;;;;2075349;28;20492;-74
2023/12/23 00:27:51;;;;;;;3.15;1.38;;;3.00;99.90;;;;;;2075448;28;20029;-75
2023/12/23 00:28:52;;;;;;;4.43;1.20;;;3.00;99.90;;;;;;2078898;28;20107;-75
2023/12/23 00:29:53;;;;;;;4.28;1.15;;;3.00;99.90;;;;;;2070027;28;20135;-75
2023/12/23 00:30:53;;;;;;;5.18;1.23;;;3.00;99.90;;;;;;2063005;28;20041;-75
2023/12/23 00:31:54;;;;;;;3.75;1.20;;;3.00;99.90;;;;;;2070398;28;20088;-74
2023/12/23 00:32:55;;;;;;;3.20;1.20;;;3.00;99.90;;;;;;2078533;28;20439;-74
2023/12/23 00:33:56;;;;;;;4.15;1.27;;;3.00;99.90;;;;;;2070622;28;20029;-74
2023/12/23 00:34:57;;;;;;;3.33;1.20;;;3.00;99.90;;;;;;2078619;28;20467;-74
2023/12/23 00:35:58;;;;;;;1.77;1.10;;;3.00;99.90;;;;;;2086742;28;20051;-74
2023/12/23 00:36:58;;;;;;;5.05;1.30;;;3.00;99.90;;;;;;2078364;28;20029;-76
2023/12/23 00:37:59;;;;;;;3.13;1.30;;;3.00;99.90;;;;;;2066647;28;20495;-74
2023/12/23 00:38:59;;;;;;;2.25;1.20;;;3.00;99.90;;;;;;2070370;28;20032;-74
2023/12/23 00:40:00;;;;;;;3.33;1.23;;;3.00;99.90;;;;;;2070533;28;20164;-74
2023/12/23 00:41:00;;;;;;;3.03;1.30;;;3.00;99.90;;;;;;2075043;28;20097;-75
2023/12/23 00:42:01;;;;;;;4.03;1.42;;;3.10;99.90;;;;;;2070298;28;20041;-74
2023/12/23 00:43:02;;;;;;;3.78;1.40;;;3.00;99.90;;;;;;2070586;28;20056;-74
2023/12/23 00:44:03;;;;;;;3.55;1.35;;;3.00;99.90;;;;;;2075258;28;20063;-74
2023/12/23 00:45:05;;;;;;;4.03;1.63;;;3.10;99.90;;;;;;2077644;28;20373;-74
2023/12/23 00:46:09;;;;;;;2.28;1.42;;;3.00;99.90;;;;;;2070470;28;20497;-74
2023/12/23 00:47:09;;;;;;;4.53;1.38;;;3.10;99.90;;;;;;2076214;28;20504;-74
2023/12/23 00:48:11;;;;;;;3.75;1.23;;;3.10;99.90;;;;;;2085351;28;20021;-74
2023/12/23 00:49:12;;;;;;;5.40;1.75;;;3.10;99.90;;;;;;2078490;28;20017;-74
2023/12/23 00:50:12;;;;;;;3.25;1.27;;;3.10;99.90;;;;;;2076410;28;20145;-75
2023/12/23 00:51:13;;;;;;;5.78;1.50;;;3.20;99.90;;;;;;2076851;28;20072;-74
2023/12/23 00:52:13;;;;;;;3.85;1.30;;;3.10;99.90;;;;;;2079628;28;20033;-75
2023/12/23 00:53:14;;;;;;;4.25;1.55;;;3.10;99.90;;;;;;2076925;28;20067;-75
2023/12/23 00:54:17;;;;;;;4.68;1.40;;;3.10;99.90;;;;;;2068479;28;20105;-75
2023/12/23 00:55:17;;;;;;;5.10;1.40;;;3.10;99.90;;;;;;2071088;28;20423;-75
2023/12/23 00:56:22;;;;;;;3.25;1.52;;;3.10;99.90;;;;;;2069179;28;20044;-76
2023/12/23 00:57:23;;;;;;;4.05;1.50;;;3.10;99.90;;;;;;2075811;28;20619;-74
2023/12/23 00:58:23;;;;;;;6.88;1.67;;;3.20;99.90;;;;;;2078762;28;20049;-74
2023/12/23 00:59:24;;;;;;;4.20;1.63;;;3.10;99.90;;;;;;2071989;28;20108;-75
2023/12/23 01:00:25;;;;;;;4.13;1.58;;;3.20;99.90;;;;;;2078906;28;20025;-73
2023/12/23 01:01:26;;;;;;;5.57;1.50;;;3.20;99.90;;;;;;2082784;28;20068;-74
2023/12/23 01:02:26;;;;;;;4.70;1.67;;;3.20;99.90;;;;;;2082154;28;20035;-73
2023/12/23 01:03:27;;;;;;;6.05;1.90;;;3.20;99.90;;;;;;2079750;28;20033;-75
2023/12/23 01:04:28;;;;;;;3.22;1.60;;;3.20;99.90;;;;;;2085829;28;20085;-74
2023/12/23 01:05:28;;;;;;;6.95;1.92;;;3.20;99.90;;;;;;2074432;28;20048;-75
2023/12/23 01:06:29;;;;;;;4.40;1.70;;;3.20;99.90;;;;;;2071162;28;20064;-74
2023/12/23 01:07:29;;;;;;;4.28;1.58;;;3.30;99.90;;;;;;2091178;28;20132;-75
2023/12/23 01:08:30;;;;;;;4.03;1.70;;;3.30;99.90;;;;;;2070931;28;20021;-74
2023/12/23 01:09:31;;;;;;;3.90;1.73;;;3.30;99.90;;;;;;2066700;28;20621;-74
2023/12/23 01:10:31;;;;;;;6.53;1.75;;;3.30;99.90;;;;;;2075210;28;20609;-74
2023/12/23 01:11:32;;;;;;;5.03;1.58;;;3.40;99.90;;;;;;2079845;28;20119;-74
2023/12/23 01:12:32;;;;;;;4.55;2.03;;;3.40;99.90;;;;;;2076090;28;20104;-74
2023/12/23 01:13:33;;;;;;;3.75;1.60;;;3.40;99.90;;;;;;2078988;28;20124;-75
2023/12/23 01:14:33;;;;;;;5.72;1.80;;;3.40;99.90;;;;;;2086238;28;20102;-75
2023/12/23 01:15:34;;;;;;;5.53;1.92;;;3.40;99.90;;;;;;2083208;28;20024;-74
2023/12/23 01:16:35;;;;;;;6.00;1.77;;;3.40;99.90;;;;;;2086407;28;20028;-75
2023/12/23 01:17:35;;;;;;;4.38;1.60;;;3.40;99.90;;;;;;2086021;28;20050;-74
2023/12/23 01:18:36;;;;;;;4.72;1.70;;;3.40;99.90;;;;;;2078936;28;20483;-75
2023/12/23 01:19:36;;;;;;;5.75;1.60;;;3.40;99.90;;;;;;2075097;28;20209;-75
2023/12/23 01:20:42;;;;;;;5.53;1.70;;;3.40;99.90;;;;;;2068945;28;20611;-74
2023/12/23 01:21:42;;;;;;;3.72;1.58;;;3.40;99.90;;;;;;2078091;28;20040;-75
2023/12/23 01:22:43;;;;;;;2.40;1.50;;;3.40;99.90;;;;;;2075981;28;20032;-76
2023/12/23 01:23:43;;;;;;;5.28;1.73;;;3.40;99.90;;;;;;2076510;28;20079;-76
2023/12/23 01:24:44;;;;;;;6.15;1.75;;;3.40;99.90;;;;;;2079077;28;20090;-76
2023/12/23 01:25:44;;;;;;;4.65;1.48;;;3.40;99.90;;;;;;2084528;28;20087;-76
2023/12/23 01:26:45;;;;;;;4.65;1.88;;;3.40;99.90;;;;;;2076524;28;20291;-75
2023/12/23 01:27:45;;;;;;;4.57;1.70;;;3.40;99.90;;;;;;2070045;28;20053;-74
2023/12/23 01:28:46;;;;;;;3.15;1.60;;;3.50;99.90;;;;;;2076466;28;20033;-74
2023/12/23 01:29:46;;;;;;;4.03;1.77;;;3.50;99.90;;;;;;2076160;28;20038;-80
2023/12/23 01:30:47;;;;;;;5.43;1.70;;;3.50;99.90;;;;;;2072142;28;20215;-74
2023/12/23 01:31:49;;;;;;;3.83;1.42;;;3.50;99.90;;;;;;2076212;28;20895;-77
2023/12/23 01:32:50;;;;;;;3.33;1.50;;;3.60;99.90;;;;;;2076810;28;20032;-76
2023/12/23 01:33:50;;;;;;;6.25;1.60;;;3.60;99.90;;;;;;2075548;28;20169;-74
2023/12/23 01:34:51;;;;;;;5.60;1.60;;;3.70;99.90;;;;;;2074634;28;20111;-74
2023/12/23 01:35:51;;;;;;;4.88;1.60;;;3.70;99.90;;;;;;2078431;28;20495;-73
2023/12/23 01:36:52;;;;;;;3.90;1.40;;;3.80;99.90;;;;;;2077271;28;20281;-73
2023/12/23 01:37:53;;;;;;;4.28;1.40;;;3.80;99.90;;;;;;2075225;28;20158;-74
2023/12/23 01:38:53;;;;;;;3.75;1.60;;;3.80;99.90;;;;;;2074512;28;20356;-71
2023/12/23 01:39:54;;;;;;;3.50;1.50;;;3.90;99.90;;;;;;2078226;28;20084;-78
2023/12/23 01:40:55;;;;;;;5.63;1.77;;;3.90;99.90;;;;;;2077505;28;20067;-77
2023/12/23 01:41:58;;;;;;;3.60;1.45;;;3.90;99.90;;;;;;2084855;28;20107;-77
2023/12/23 01:42:59;;;;;;;3.63;1.50;;;3.90;99.90;;;;;;2078061;28;20401;-77
2023/12/23 01:43:59;;;;;;;2.15;1.45;;;3.90;99.90;;;;;;2078762;28;20095;-75
2023/12/23 01:45:00;;;;;;;5.90;1.45;;;3.80;99.90;;;;;;2086369;28;20089;-78
2023/12/23 01:46:01;;;;;;;3.17;1.50;;;3.90;99.90;;;;;;2070617;28;20027;-74
2023/12/23 01:47:03;;;;;;;5.57;1.58;;;3.80;99.90;;;;;;2078232;28;20407;-77
2023/12/23 01:48:05;;;;;;;5.53;1.80;;;3.80;99.90;;;;;;2078606;28;20029;-77
2023/12/23 01:49:06;;;;;;;4.35;1.40;;;3.80;99.90;;;;;;2074926;28;20021;-78
2023/12/23 01:50:09;;;;;;;4.72;1.58;;;3.80;99.90;;;;;;2077385;28;20045;-78
2023/12/23 01:51:10;;;;;;;6.60;1.90;;;3.80;99.90;;;;;;2086669;28;20031;-78
2023/12/23 01:52:11;;;;;;;4.90;1.70;;;3.80;99.90;;;;;;2078002;28;20124;-78
2023/12/23 01:53:11;;;;;;;3.90;1.40;;;3.80;99.90;;;;;;2077597;28;20021;-77
2023/12/23 01:54:12;;;;;;;5.13;1.65;;;3.80;99.90;;;;;;2075137;28;20029;-77
2023/12/23 01:55:13;;;;;;;6.75;1.70;;;3.90;99.90;;;;;;2077521;28;20052;-77
2023/12/23 01:56:14;;;;;;;4.97;1.60;;;3.90;99.90;;;;;;2076556;28;20026;-78
2023/12/23 01:57:17;;;;;;;4.93;1.70;;;3.90;99.90;;;;;;2078165;28;20093;-78
2023/12/23 01:58:18;;;;;;;3.92;1.40;;;3.90;99.90;;;;;;2084069;28;20063;-78
2023/12/23 01:59:19;;;;;;;5.10;1.48;;;3.90;99.90;;;;;;2079143;28;20022;-78
2023/12/23 02:00:22;;;;;;;5.57;1.58;;;3.90;99.90;;;;;;2074591;28;20109;-78
2023/12/23 02:01:22;;;;;;;7.95;1.80;;;3.90;99.90;;;;;;2086326;28;20031;-77
2023/12/23 02:02:23;;;;;;;5.85;1.45;;;3.90;99.90;;;;;;2076660;28;20475;-78
2023/12/23 02:03:26;;;;;;;6.78;1.52;;;4.00;99.90;;;;;;2077833;28;20081;-78
2023/12/23 02:04:26;;;;;;;6.95;1.40;;;3.90;99.90;;;;;;2083839;28;20191;-78
2023/12/23 02:05:27;;;;;;;4.45;1.42;;;3.90;99.90;;;;;;2078066;28;20136;-78
2023/12/23 02:06:27;;;;;;;7.55;1.63;;;3.90;99.90;;;;;;2077186;28;20579;-77
2023/12/23 02:07:28;;;;;;;9.00;1.52;;;3.90;99.90;;;;;;2075719;28;20677;-77
2023/12/23 02:08:29;;;;;;;8.02;1.83;;;3.90;99.90;;;;;;2074777;28;20569;-77
2023/12/23 02:09:29;;;;;;;7.38;1.40;;;4.00;99.90;;;;;;2075017;28;20029;-77
2023/12/23 02:10:30;;;;;;;7.75;1.52;;;3.90;99.90;;;;;;2073035;28;20520;-77
2023/12/23 02:11:49;;;;;;;5.20;1.38;;;3.90;99.90;;;;;;2078353;28;20476;-78
2023/12/23 02:13:13;;;;;;;7.07;1.58;;;3.90;99.90;;;;;;2075944;28;20236;-76
2023/12/23 02:14:31;;;;;;;6.20;1.55;;;3.90;99.90;;;;;;2071396;28;20088;-77
2023/12/23 02:15:33;;;;;;;4.82;1.40;;;3.90;99.90;;;;;;2067718;28;20033;-76
2023/12/23 02:16:34;;;;;;;6.70;1.58;;;3.90;99.90;;;;;;2078068;28;20029;-77
2023/12/23 02:17:37;;;;;;;7.68;1.50;;;3.80;99.90;;;;;;2077746;28;20139;-77
2023/12/23 02:18:40;;;;;;;5.40;1.45;;;3.80;99.90;;;;;;2070293;28;20543;-78
2023/12/23 02:19:41;;;;;;;8.95;1.67;;;3.80;99.90;;;;;;2077685;28;20026;-76
2023/12/23 02:20:41;;;;;;;5.80;1.58;;;3.80;99.90;;;;;;2070048;28;20495;-76
2023/12/23 02:21:42;;;;;;;10.20;1.77;;;3.80;99.90;;;;;;2065083;28;20029;-78
2023/12/23 02:22:43;;;;;;;5.97;1.60;;;3.80;99.90;;;;;;2070777;28;20116;-76
2023/12/23 02:23:43;;;;;;;8.43;1.70;;;3.80;99.90;;;;;;2077931;28;20194;-77
2023/12/23 02:24:44;;;;;;;7.03;1.50;;;3.70;99.90;;;;;;2075180;28;20085;-77
2023/12/23 02:25:49;;;;;;;5.60;1.38;;;3.70;99.90;;;;;;2068876;28;20476;-78
2023/12/23 02:26:53;;;;;;;6.63;1.45;;;3.60;99.90;;;;;;2065454;28;20030;-75
2023/12/23 02:28:00;;;;;;;5.10;1.70;;;3.60;99.90;;;;;;2076385;28;20025;-78
2023/12/23 02:29:01;;;;;;;5.32;1.70;;;3.60;99.90;;;;;;2078746;28;20633;-77
2023/12/23 02:30:02;;;;;;;7.28;1.55;;;3.50;99.90;;;;;;2074725;28;20033;-77
2023/12/23 02:31:03;;;;;;;6.63;1.50;;;3.50;99.90;;;;;;2071475;28;20045;-77
2023/12/23 02:32:05;;;;;;;6.57;1.60;;;3.50;99.90;;;;;;2077632;28;20074;-77
2023/12/23 02:33:07;;;;;;;8.00;1.50;;;3.50;99.90;;;;;;2082887;28;20025;-77
2023/12/23 02:34:08;;;;;;;6.40;1.70;;;3.50;99.90;;;;;;2079431;28;20631;-76
2023/12/23 02:35:09;;;;;;;6.80;1.70;;;3.40;99.90;;;;;;2079460;28;20029;-77
2023/12/23 02:36:09;;;;;;;4.53;1.40;;;3.50;99.90;;;;;;2076169;28;20232;-78
2023/12/23 02:37:10;;;;;;;7.30;1.80;;;3.40;99.90;;;;;;2087592;28;20103;-78
2023/12/23 02:38:10;;;;;;;9.65;1.70;;;3.40;99.90;;;;;;2087562;28;20090;-76
2023/12/23 02:39:11;;;;;;;8.55;1.48;;;3.50;99.90;;;;;;2075911;28;20037;-77
2023/12/23 02:40:12;;;;;;;7.38;1.75;;;3.40;99.90;;;;;;2078901;28;20095;-77
2023/12/23 02:41:13;;;;;;;7.13;1.60;;;3.40;99.90;;;;;;2079896;28;20034;-78
2023/12/23 02:42:13;;;;;;;7.55;1.58;;;3.40;99.90;;;;;;2079159;28;20503;-78
2023/12/23 02:43:14;;;;;;;6.22;1.42;;;3.30;99.90;;;;;;2079459;28;20033;-77
2023/12/23 02:44:15;;;;;;;8.90;1.80;;;3.30;99.90;;;;;;2079198;28;20025;-78
2023/12/23 02:45:15;;;;;;;8.75;1.67;;;3.30;99.90;;;;;;2079555;28;20070;-78
2023/12/23 02:46:16;;;;;;;8.35;1.77;;;3.30;99.90;;;;;;2076397;28;20025;-78
2023/12/23 02:47:16;;;;;;;10.60;1.80;;;3.30;99.90;;;;;;2075672;28;20030;-77
2023/12/23 02:48:17;;;;;;;7.97;1.52;;;3.30;99.90;;;;;;2079286;28;20044;-78
2023/12/23 02:49:17;;;;;;;7.82;1.70;;;3.20;99.90;;;;;;2076672;28;20113;-78
2023/12/23 02:50:18;;;;;;;8.18;1.73;;;3.20;99.90;;;;;;2078208;28;20051;-79
2023/12/23 02:51:18;;;;;;;6.57;1.40;;;3.20;99.90;;;;;;2071368;28;20033;-78
2023/12/23 02:52:19;;;;;;;7.85;1.60;;;3.20;99.90;;;;;;2068745;28;20073;-77
2023/12/23 02:53:19;;;;;;;10.68;2.00;;;3.20;99.90;;;;;;2078470;28;20030;-78
2023/12/23 02:54:20;;;;;;;8.90;1.50;;;3.20;99.90;;;;;;2075502;28;20041;-77
2023/12/23 02:55:20;;;;;;;8.00;1.52;;;3.10;99.90;;;;;;2077148;28;20523;-78
2023/12/23 02:56:21;;;;;;;8.50;1.60;;;3.10;99.90;;;;;;2076801;28;20030;-78
2023/12/23 02:57:22;;;;;;;7.22;1.60;;;3.10;99.90;;;;;;2076491;28;20030;-78
2023/12/23 02:58:22;;;;;;;7.38;1.60;;;3.10;99.90;;;;;;2085377;28;20456;-77
2023/12/23 02:59:23;;;;;;;8.52;1.95;;;3.00;99.90;;;;;;2085939;28;20051;-78
2023/12/23 03:00:23;;;;;;;7.05;1.60;;;3.00;99.90;;;;;;2070907;28;20064;-77
2023/12/23 03:01:25;;;;;;;7.20;1.65;;;2.90;99.90;;;;;;2061422;28;20098;-77
2023/12/23 03:02:25;;;;;;;7.35;1.50;;;2.90;99.90;;;;;;2077272;28;20029;-77
2023/12/23 03:03:26;;;;;;;9.95;1.80;;;2.90;99.90;;;;;;2076401;28;20244;-78
2023/12/23 03:04:28;;;;;;;6.90;1.58;;;2.90;99.90;;;;;;2077727;28;20057;-78
2023/12/23 03:05:28;;;;;;;5.13;1.40;;;2.90;99.90;;;;;;2068322;28;20454;-79
2023/12/23 03:06:29;;;;;;;6.13;1.65;;;2.90;99.90;;;;;;2069946;28;20402;-79
2023/12/23 03:07:29;;;;;;;6.75;1.63;;;2.90;99.90;;;;;;2062961;28;20018;-78
2023/12/23 03:08:30;;;;;;;9.20;1.83;;;2.80;99.90;;;;;;2066949;28;20582;-79
2023/12/23 03:09:31;;;;;;;6.90;1.73;;;2.80;99.90;;;;;;2075142;28;20030;-80
2023/12/23 03:10:32;;;;;;;5.60;1.40;;;2.80;99.90;;;;;;2087750;28;20103;-80
2023/12/23 03:11:32;;;;;;;6.32;1.52;;;2.80;99.90;;;;;;2078584;28;20029;-78
2023/12/23 03:12:33;;;;;;;8.60;1.63;;;2.80;99.90;;;;;;2076322;28;20044;-79
2023/12/23 03:13:34;;;;;;;5.97;1.70;;;2.70;99.90;;;;;;2080204;28;20532;-79
2023/12/23 03:14:35;;;;;;;8.55;1.80;;;2.70;99.90;;;;;;2079855;28;20107;-79
2023/12/23 03:15:35;;;;;;;5.75;1.63;;;2.70;99.90;;;;;;2084062;28;20044;-79
2023/12/23 03:16:36;;;;;;;8.35;1.88;;;2.70;99.90;;;;;;2079272;28;20443;-78
2023/12/23 03:17:36;;;;;;;8.27;1.73;;;2.70;99.90;;;;;;2067191;28;20056;-78
2023/12/23 03:18:37;;;;;;;10.35;1.88;;;2.70;99.90;;;;;;2067263;28;20060;-78
2023/12/23 03:19:37;;;;;;;7.13;1.67;;;2.70;99.90;;;;;;2078832;28;20523;-78
2023/12/23 03:20:38;;;;;;;6.88;1.60;;;2.70;99.90;;;;;;2066579;28;20030;-79
2023/12/23 03:21:43;;;;;;;5.85;1.58;;;2.60;99.90;;;;;;2067274;28;20085;-79
2023/12/23 03:22:44;;;;;;;6.55;1.50;;;2.60;99.90;;;;;;2059333;28;20086;-79
2023/12/23 03:23:44;;;;;;;8.40;1.75;;;2.60;99.90;;;;;;2063095;28;20105;-79
2023/12/23 03:24:45;;;;;;;7.20;1.45;;;2.60;99.90;;;;;;2075320;28;20025;-79
2023/12/23 03:25:45;;;;;;;7.78;1.67;;;2.70;99.90;;;;;;2075919;28;20175;-78
2023/12/23 03:26:46;;;;;;;6.57;1.50;;;2.70;99.90;;;;;;2079908;28;20047;-78
2023/12/23 03:27:46;;;;;;;8.27;1.90;;;2.70;99.90;;;;;;2076242;28;20119;-79
2023/12/23 03:28:47;;;;;;;6.00;1.63;;;2.70;99.90;;;;;;2079084;28;20018;-78
2023/12/23 03:29:47;;;;;;;6.72;1.67;;;2.70;99.90;;;;;;2079207;28;20056;-79
2023/12/23 03:30:50;;;;;;;8.50;1.95;;;2.70;99.90;;;;;;2072655;28;20022;-77
2023/12/23 03:31:51;;;;;;;11.70;1.83;;;2.70;99.90;;;;;;2084985;28;20020;-78
2023/12/23 03:32:52;;;;;;;10.52;1.80;;;2.70;99.90;;;;;;2076551;28;20523;-77
2023/12/23 03:33:52;;;;;;;11.95;1.90;;;2.70;99.90;;;;;;2062797;28;20022;-78
2023/12/23 03:34:53;;;;;;;8.27;1.73;;;2.70;99.90;;;;;;2054634;28;20065;-78
2023/12/23 03:35:56;;;;;;;8.02;1.63;;;2.80;99.90;;;;;;2069650;28;20032;-78
2023/12/23 03:36:57;;;;;;;9.55;1.80;;;2.80;99.90;;;;;;2079427;28;20021;-77
2023/12/23 03:37:57;;;;;;;10.15;1.80;;;2.80;99.90;;;;;;2077699;28;20025;-78
2023/12/23 03:38:58;;;;;;;11.90;1.92;;;2.80;99.90;;;;;;2085123;28;20242;-77
2023/12/23 03:39:58;;;;;;;8.65;1.60;;;2.80;99.90;;;;;;2079007;28;20287;-78
2023/12/23 03:40:59;;;;;;;8.43;1.77;;;2.80;99.90;;;;;;2077573;28;20844;-78
2023/12/23 03:41:59;;;;;;;10.13;1.80;;;2.80;99.90;;;;;;2071309;28;20438;-79
2023/12/23 03:43:00;;;;;;;10.98;1.80;;;2.80;99.90;;;;;;2075656;28;20091;-78
2023/12/23 03:44:01;;;;;;;8.15;1.90;;;2.90;99.90;;;;;;2082943;28;20063;-78
2023/12/23 03:45:01;;;;;;;10.55;1.88;;;2.90;99.90;;;;;;2086158;28;20406;-79
2023/12/23 03:46:02;;;;;;;8.13;1.60;;;2.90;99.90;;;;;;2068126;28;20025;-79
2023/12/23 03:47:02;;;;;;;12.32;1.80;;;2.90;99.90;;;;;;2062685;28;20024;-78
2023/12/23 03:48:03;;;;;;;11.57;1.83;;;2.80;99.90;;;;;;2078044;28;20051;-79
2023/12/23 03:49:04;;;;;;;9.63;1.85;;;2.80;99.90;;;;;;2076020;28;20045;-78
2023/12/23 03:50:05;;;;;;;12.48;2.03;;;2.90;99.90;;;;;;2070788;28;20049;-79
2023/12/23 03:51:07;;;;;;;10.68;1.95;;;2.90;99.90;;;;;;2078481;28;20059;-78
2023/12/23 03:52:08;;;;;;;8.23;1.73;;;2.90;99.90;;;;;;2079402;28;20017;-79
2023/12/23 03:53:08;;;;;;;9.18;1.88;;;2.80;99.90;;;;;;2072779;28;20525;-78
2023/12/23 03:54:09;;;;;;;7.03;1.73;;;2.90;99.90;;;;;;2076170;28;20025;-79
2023/12/23 03:55:11;;;;;;;10.90;1.98;;;2.90;99.90;;;;;;2079061;28;20031;-78
2023/12/23 03:56:11;;;;;;;11.90;2.15;;;2.90;99.90;;;;;;2071458;28;20454;-79
2023/12/23 03:57:12;;;;;;;12.18;1.98;;;2.90;99.90;;;;;;2079187;28;20060;-79
2023/12/23 03:58:13;;;;;;;10.30;1.98;;;2.90;99.90;;;;;;2079763;28;20114;-78
2023/12/23 03:59:13;;;;;;;9.70;1.88;;;2.90;99.90;;;;;;2075604;28;20044;-79
2023/12/23 04:00:14;;;;;;;9.13;1.80;;;2.90;99.90;;;;;;2070963;28;20026;-78
2023/12/23 04:01:18;;;;;;;12.55;2.22;;;2.90;99.90;;;;;;2079838;28;20116;-79
2023/12/23 04:02:18;;;;;;;12.95;1.73;;;2.90;99.90;;;;;;2068343;28;20480;-80
2023/12/23 04:03:19;;;;;;;14.90;2.33;;;2.90;99.90;;;;;;2073202;28;20026;-78
2023/12/23 04:04:20;;;;;;;11.05;1.90;;;2.90;99.90;;;;;;2076709;28;20088;-79
2023/12/23 04:05:21;;;;;;;10.52;1.92;;;2.90;99.90;;;;;;2065543;28;20098;-78
2023/12/23 04:06:22;;;;;;;17.25;2.50;;;2.90;99.90;;;;;;2073987;28;20057;-78
2023/12/23 04:07:22;;;;;;;7.55;1.80;;;2.90;99.90;;;;;;2072533;28;20475;-79
2023/12/23 04:08:23;;;;;;;9.75;2.25;;;2.90;99.90;;;;;;2076949;28;20068;-78
2023/12/23 04:09:24;;;;;;;11.35;2.20;;;2.90;99.90;;;;;;2080844;28;20045;-78
2023/12/23 04:10:24;;;;;;;12.00;2.30;;;2.90;99.90;;;;;;2080169;28;20034;-78
2023/12/23 04:11:25;;;;;;;10.00;2.00;;;2.90;99.90;;;;;;2070973;28;20044;-79
2023/12/23 04:12:26;;;;;;;13.35;2.20;;;2.90;99.90;;;;;;2060387;28;20479;-78
2023/12/23 04:13:26;;;;;;;12.45;2.20;;;2.90;99.90;;;;;;2076850;28;20475;-80
2023/12/23 04:14:28;;;;;;;11.73;1.95;;;3.00;99.90;;;;;;2079408;28;20049;-78
2023/12/23 04:15:28;;;;;;;10.85;2.08;;;2.90;99.90;;;;;;2075177;28;20025;-78
2023/12/23 04:16:29;;;;;;;12.82;1.90;;;3.00;99.90;;;;;;2067740;28;20320;-77
2023/12/23 04:17:29;;;;;;;10.88;1.98;;;3.00;99.90;;;;;;2070769;28;20034;-80
2023/12/23 04:18:30;;;;;;;10.70;2.00;;;3.00;99.90;;;;;;2077419;28;20051;-77
2023/12/23 04:19:30;;;;;;;8.80;2.22;;;3.00;99.90;;;;;;2076484;28;20581;-78
2023/12/23 04:20:32;;;;;;;13.15;1.90;;;3.00;99.90;;;;;;2067633;28;20026;-79
2023/12/23 04:21:32;;;;;;;12.88;2.13;;;3.00;99.90;;;;;;2067114;28;20550;-79
2023/12/23 04:22:34;;;;;;;9.10;1.90;;;3.00;99.90;;;;;;2067245;28;20026;-80
2023/12/23 04:23:36;;;;;;;12.85;1.95;;;3.00;99.90;;;;;;2078979;28;20033;-78
2023/12/23 04:24:36;;;;;;;11.43;1.80;;;3.00;99.90;;;;;;2078280;28;20021;-79
2023/12/23 04:25:37;;;;;;;8.75;1.90;;;2.90;99.90;;;;;;2075278;28;20025;-79
2023/12/23 04:26:37;;;;;;;15.07;2.30;;;3.00;99.90;;;;;;2078898;28;20014;-79
2023/12/23 04:27:38;;;;;;;13.93;1.95;;;3.00;99.90;;;;;;2077799;28;20203;-79
2023/12/23 04:28:38;;;;;;;10.05;2.13;;;2.90;99.90;;;;;;2072208;28;20034;-80
2023/12/23 04:29:39;;;;;;;10.57;1.80;;;2.90;99.90;;;;;;2074427;28;20075;-79
2023/12/23 04:30:40;;;;;;;8.52;1.90;;;2.90;99.90;;;;;;2077582;28;20029;-78
2023/12/23 04:31:41;;;;;;;10.63;2.15;;;2.90;99.90;;;;;;2079422;28;20103;-78
2023/12/23 04:32:42;;;;;;;8.50;1.60;;;2.90;99.90;;;;;;2082964;28;20118;-78
2023/12/23 04:33:42;;;;;;;10.77;1.88;;;2.90;99.90;;;;;;2078726;28;20074;-80
2023/12/23 04:34:43;;;;;;;11.20;1.70;;;2.90;99.90;;;;;;2070492;28;20456;-77
2023/12/23 04:35:43;;;;;;;8.43;1.80;;;2.90;99.90;;;;;;2066517;28;20049;-78
2023/12/23 04:36:44;;;;;;;12.98;2.20;;;2.90;99.90;;;;;;2078768;28;20032;-77
2023/12/23 04:37:45;;;;;;;10.18;1.80;;;2.90;99.90;;;;;;2070438;28;20025;-76
2023/12/23 04:38:46;;;;;;;7.35;1.48;;;2.90;99.90;;;;;;2067346;28;20076;-79
2023/12/23 04:39:47;;;;;;;7.10;1.73;;;2.90;99.90;;;;;;2083200;28;20029;-78
2023/12/23 04:40:47;;;;;;;8.30;1.85;;;2.90;99.90;;;;;;2078818;28;20119;-80
2023/12/23 04:41:48;;;;;;;9.18;1.98;;;2.90;99.90;;;;;;2077754;28;20499;-80
2023/12/23 04:42:49;;;;;;;9.18;1.70;;;2.90;99.90;;;;;;2075518;28;20048;-80
2023/12/23 04:43:50;;;;;;;7.78;1.70;;;2.90;99.90;;;;;;2069634;28;20034;-79
2023/12/23 04:44:50;;;;;;;10.88;2.20;;;3.00;99.90;;;;;;2066626;28;20104;-80
2023/12/23 04:45:51;;;;;;;8.52;1.63;;;3.00;99.90;;;;;;2059456;28;20072;-80
2023/12/23 04:46:52;;;;;;;8.73;1.77;;;2.90;99.90;;;;;;2061280;28;20023;-79
2023/12/23 04:47:52;;;;;;;12.27;1.73;;;2.90;99.90;;;;;;2070467;28;20807;-80
2023/12/23 04:48:53;;;;;;;9.95;2.22;;;3.00;99.90;;;;;;2065711;28;20097;-77
2023/12/23 04:49:53;;;;;;;9.65;2.05;;;3.00;99.90;;;;;;2077159;28;20087;-80
2023/12/23 04:50:54;;;;;;;8.52;2.33;;;3.00;99.90;;;;;;2075253;28;20083;-77
2023/12/23 04:51:54;;;;;;;10.75;2.03;;;3.00;99.90;;;;;;2075852;28;20072;-79
2023/12/23 04:52:55;;;;;;;9.82;1.92;;;3.00;99.90;;;;;;2068750;28;20712;-78
2023/12/23 04:53:59;;;;;;;9.90;1.92;;;3.00;99.90;;;;;;2062752;28;20046;-78
2023/12/23 04:55:03;;;;;;;8.13;1.88;;;3.00;99.90;;;;;;2070908;28;20064;-77
2023/12/23 04:56:04;;;;;;;13.18;2.05;;;3.00;99.90;;;;;;2084493;28;20117;-78
2023/12/23 04:57:05;;;;;;;9.15;1.80;;;3.00;99.90;;;;;;2083883;28;20140;-77
2023/12/23 04:58:06;;;;;;;7.22;1.80;;;3.00;99.90;;;;;;2066433;28;20021;-77
2023/12/23 04:59:08;;;;;;;14.77;5.18;;;3.00;99.90;;;;;;2061471;28;20654;-77
2023/12/23 05:00:09;;;;;;;9.00;2.13;;;3.00;99.90;;;;;;2067561;28;20033;-77
2023/12/23 05:01:09;;;;;;;11.65;1.80;;;3.00;99.90;;;;;;2066508;28;20026;-80
2023/12/23 05:02:10;;;;;;;10.15;2.03;;;3.00;99.90;;;;;;2066382;28;20033;-79
2023/12/23 05:03:10;;;;;;;9.02;1.98;;;3.00;99.90;;;;;;2066585;28;20053;-78
2023/12/23 05:04:11;;;;;;;10.90;2.17;;;3.00;99.90;;;;;;2066618;28;20530;-78
2023/12/23 05:05:12;;;;;;;9.95;2.13;;;3.00;99.90;;;;;;2066662;28;20049;-78
2023/12/23 05:06:13;;;;;;;14.68;2.22;;;3.00;99.90;;;;;;2074882;28;20499;-78
2023/12/23 05:07:13;;;;;;;9.95;2.10;;;2.90;99.90;;;;;;2078526;28;20165;-78
2023/12/23 05:08:17;;;;;;;13.15;2.20;;;2.90;99.90;;;;;;2078284;28;20040;-78
2023/12/23 05:09:17;;;;;;;11.23;2.13;;;3.00;99.90;;;;;;2071185;28;20220;-79
2023/12/23 05:10:18;;;;;;;10.52;2.20;;;3.00;99.90;;;;;;2074464;28;20061;-77
2023/12/23 05:11:18;;;;;;;10.57;1.92;;;3.00;99.90;;;;;;2074534;28;20049;-78
2023/12/23 05:12:21;;;;;;;12.18;1.95;;;3.00;99.90;;;;;;2075168;28;20267;-79
2023/12/23 05:13:23;;;;;;;14.68;2.20;;;3.00;99.90;;;;;;2077779;28;20109;-78
2023/12/23 05:14:23;;;;;;;9.82;2.10;;;3.00;99.90;;;;;;2062335;28;20033;-79
2023/12/23 05:15:24;;;;;;;7.80;2.17;;;3.00;99.90;;;;;;2059209;28;20707;-79
2023/12/23 05:16:25;;;;;;;11.80;2.17;;;3.00;99.90;;;;;;2074521;28;20040;-79
2023/12/23 05:17:25;;;;;;;14.52;2.20;;;3.00;99.90;;;;;;2075493;28;20080;-77
2023/12/23 05:18:26;;;;;;;10.07;2.20;;;3.00;99.90;;;;;;2075146;28;20112;-79
2023/12/23 05:19:26;;;;;;;10.85;2.25;;;3.00;99.90;;;;;;2083498;28;20541;-79
2023/12/23 05:20:27;;;;;;;11.57;2.35;;;3.00;99.90;;;;;;2076807;28;20065;-79
2023/12/23 05:21:27;;;;;;;8.35;2.40;;;3.00;99.90;;;;;;2078658;28;20035;-78